Terminal Aerodrome Forecast
Issued by NWS Wichita, KS

Home | Current Version | Previous Version | Text Only | Print | Product List | Glossary On
Versions: 1 2 3 4 5 6 7 8 9 10 11 12 13 14 15 16 17 18 19
000
FTUS43 KICT 210522
TAFICT
TAF
KICT 210522Z 2106/2206 02005KT P6SM SCT200
      TEMPO 2106/2109 BKN025
     FM210900 01004KT 4SM BR SCT015
     FM211100 01004KT 2SM BR BKN010
     FM211200 VRB03KT 1SM BR OVC006
     FM211400 VRB03KT 3SM BR BKN012
     FM211500 VRB03KT P6SM SCT020
     FM211700 16005KT P6SM SKC=

USA.gov is the U.S. government's official web portal to all federal, state and local government web resources and services.